Time;durP1;ratioP1;P1;durP2;ratioP2;P2;SDS_P1;SDS_P2;PMS_P1;PMS_P2;Temp;Humidity;BMP_temperature;BMP_pressure;BME280_temperature;BME280_humidity;BME280_pressure;Samples;Min_cycle;Max_cycle;Signal;HPM_P1;HPM_P2
2023/08/18 00:01:29;;;;;;;0.10;0.10;;;;;;;-144.31;100.00;58022.63;5058898;28;20029;-63
2023/08/18 00:04:54;;;;;;;0.10;0.10;;;;;;;-144.31;100.00;58022.63;5056074;28;20032;-64
2023/08/18 00:08:18;;;;;;;0.10;0.10;;;;;;;-144.31;100.00;58022.63;5055305;28;20543;-63
2023/08/18 00:11:42;;;;;;;0.10;0.10;;;;;;;-144.31;100.00;58022.63;5051571;28;20040;-62
2023/08/18 00:15:06;;;;;;;0.10;0.10;;;;;;;-144.31;100.00;58022.63;5053128;28;20041;-63
2023/08/18 00:18:30;;;;;;;0.10;0.10;;;;;;;-144.31;100.00;58022.63;5055484;28;20040;-61
2023/08/18 00:21:54;;;;;;;0.10;0.10;;;;;;;-144.31;100.00;58022.63;5049429;28;20083;-63
2023/08/18 00:25:17;;;;;;;0.10;0.10;;;;;;;-144.31;100.00;58022.63;5058164;28;20024;-63
2023/08/18 00:28:41;;;;;;;0.10;0.10;;;;;;;-144.31;100.00;58022.63;5056546;28;20115;-64
2023/08/18 00:32:06;;;;;;;0.10;0.10;;;;;;;-144.31;100.00;58022.63;5050610;28;20041;-61
2023/08/18 00:35:30;;;;;;;0.10;0.10;;;;;;;-144.31;100.00;58022.63;5053471;28;20079;-63
2023/08/18 00:38:54;;;;;;;0.10;0.10;;;;;;;-144.31;100.00;58022.63;5059371;28;20044;-63
2023/08/18 00:42:17;;;;;;;0.10;0.10;;;;;;;-144.31;100.00;58022.63;5054053;28;20047;-61
2023/08/18 00:45:42;;;;;;;0.10;0.10;;;;;;;-144.31;100.00;58022.63;5061602;28;20032;-63
2023/08/18 00:49:08;;;;;;;0.10;0.10;;;;;;;-144.31;100.00;58022.63;5053845;28;20060;-62
2023/08/18 00:52:31;;;;;;;;;;;;;;;-144.31;100.00;58022.63;5052617;28;20115;-62
2023/08/18 00:55:56;;;;;;;0.10;0.10;;;;;;;-144.31;100.00;58022.63;5052811;28;20367;-61
2023/08/18 00:59:21;;;;;;;0.20;0.20;;;;;;;-144.31;100.00;58022.63;5055889;28;20047;-62
2023/08/18 01:02:46;;;;;;;0.20;0.20;;;;;;;-144.31;100.00;58022.63;5055735;28;20028;-62
2023/08/18 01:06:10;;;;;;;0.13;0.13;;;;;;;-144.31;100.00;58022.63;5056331;28;20560;-63
2023/08/18 01:09:34;;;;;;;0.10;0.10;;;;;;;-144.31;100.00;58022.63;5057116;28;20463;-62
2023/08/18 01:13:24;;;;;;;0.20;0.20;;;;;;;-144.31;100.00;58022.63;5070757;28;20140;-63
2023/08/18 01:17:04;;;;;;;0.20;0.20;;;;;;;-144.31;100.00;58022.63;5062710;28;20045;-63
2023/08/18 01:20:29;;;;;;;0.10;0.10;;;;;;;-144.31;100.00;58022.63;5053246;28;20777;-64
2023/08/18 01:23:53;;;;;;;0.20;0.20;;;;;;;-144.31;100.00;58022.63;5058320;28;20036;-62
2023/08/18 01:27:19;;;;;;;0.20;0.20;;;;;;;-144.31;100.00;58022.63;5054747;28;20447;-63
2023/08/18 01:30:48;;;;;;;0.10;0.10;;;;;;;-144.31;100.00;58022.63;5056308;28;20117;-63
2023/08/18 01:34:18;;;;;;;0.20;0.20;;;;;;;-144.31;100.00;58022.63;5054434;28;20699;-63
2023/08/18 01:37:44;;;;;;;0.20;0.20;;;;;;;-144.31;100.00;58022.63;5055367;28;20086;-64
2023/08/18 01:41:11;;;;;;;0.20;0.20;;;;;;;-144.31;100.00;58022.63;5058525;28;20832;-64
2023/08/18 01:44:35;;;;;;;0.10;0.10;;;;;;;-144.31;100.00;58022.63;5055395;28;20036;-64
2023/08/18 01:47:59;;;;;;;0.13;0.13;;;;;;;-144.31;100.00;58022.63;5061289;28;20466;-63
2023/08/18 01:51:23;;;;;;;0.20;0.20;;;;;;;-144.31;100.00;58022.63;5058935;28;20047;-61
2023/08/18 01:54:49;;;;;;;0.10;0.10;;;;;;;-144.31;100.00;58022.63;5060233;28;20045;-61
2023/08/18 01:58:13;;;;;;;;;;;;;;;-144.31;100.00;58022.63;5056597;28;20079;-62
2023/08/18 02:01:37;;;;;;;0.10;0.10;;;;;;;-144.31;100.00;58022.63;5062216;28;19999;-63
2023/08/18 02:05:01;;;;;;;0.20;0.20;;;;;;;-144.31;100.00;58022.63;5037774;28;20083;-63
2023/08/18 02:08:25;;;;;;;0.10;0.10;;;;;;;-144.31;100.00;58022.63;5056179;28;20033;-61
2023/08/18 02:11:49;;;;;;;0.15;0.15;;;;;;;-144.31;100.00;58022.63;5059949;28;20775;-62
2023/08/18 02:15:13;;;;;;;0.17;0.17;;;;;;;-144.31;100.00;58022.63;5058176;28;20443;-60
2023/08/18 02:18:38;;;;;;;0.15;0.15;;;;;;;-144.31;100.00;58022.63;5042847;28;20029;-61
2023/08/18 02:22:02;;;;;;;0.20;0.20;;;;;;;-144.31;100.00;58022.63;5063049;28;20036;-61
2023/08/18 02:25:26;;;;;;;0.20;0.20;;;;;;;-144.31;100.00;58022.63;5060694;28;20071;-61
2023/08/18 02:28:50;;;;;;;0.10;0.10;;;;;;;-144.31;100.00;58022.63;5057995;28;20037;-60
2023/08/18 02:32:18;;;;;;;0.20;0.20;;;;;;;-144.31;100.00;58022.63;5058516;28;20116;-60
2023/08/18 02:35:43;;;;;;;0.20;0.20;;;;;;;-144.31;100.00;58022.63;5057002;28;20045;-63
2023/08/18 02:39:07;;;;;;;0.20;0.20;;;;;;;-144.31;100.00;58022.63;5053411;28;20123;-62
2023/08/18 02:42:33;;;;;;;0.20;0.20;;;;;;;-144.31;100.00;58022.63;5059413;28;20040;-62
2023/08/18 02:46:00;;;;;;;0.20;0.20;;;;;;;-144.31;100.00;58022.63;5061158;28;20028;-62
2023/08/18 02:49:25;;;;;;;0.20;0.20;;;;;;;-144.31;100.00;58022.63;5059749;28;20028;-62
2023/08/18 02:52:48;;;;;;;0.13;0.13;;;;;;;-144.31;100.00;58022.63;5052275;28;20048;-62
2023/08/18 02:56:13;;;;;;;0.10;0.10;;;;;;;-144.31;100.00;58022.63;5060225;28;20584;-63
2023/08/18 02:59:38;;;;;;;0.20;0.20;;;;;;;-144.31;100.00;58022.63;5055150;28;20398;-63
2023/08/18 03:03:02;;;;;;;0.20;0.20;;;;;;;-144.31;100.00;58022.63;5056380;28;20101;-62
2023/08/18 03:06:26;;;;;;;0.20;0.20;;;;;;;-144.31;100.00;58022.63;5060008;28;21687;-61
2023/08/18 03:09:50;;;;;;;0.20;0.20;;;;;;;-144.31;100.00;58022.63;5057756;28;20426;-61
2023/08/18 03:13:14;;;;;;;0.20;0.20;;;;;;;-144.31;100.00;58022.63;5059426;28;20041;-61
2023/08/18 03:16:38;;;;;;;0.20;0.20;;;;;;;-144.31;100.00;58022.63;5059002;28;20151;-63
2023/08/18 03:20:04;;;;;;;0.20;0.20;;;;;;;-144.31;100.00;58022.63;5058268;28;20039;-61
2023/08/18 03:23:29;;;;;;;0.20;0.20;;;;;;;-144.31;100.00;58022.63;5056999;28;20394;-63
2023/08/18 03:26:57;;;;;;;0.20;0.20;;;;;;;-144.31;100.00;58022.63;5055372;28;20056;-61
2023/08/18 03:30:21;;;;;;;0.20;0.20;;;;;;;-144.31;100.00;58022.63;5056410;28;20153;-63
2023/08/18 03:33:45;;;;;;;0.20;0.20;;;;;;;-144.31;100.00;58022.63;5060588;28;20045;-63
2023/08/18 03:37:15;;;;;;;0.20;0.20;;;;;;;-144.31;100.00;58022.63;5061964;28;20525;-61
2023/08/18 03:40:38;;;;;;;0.20;0.20;;;;;;;-144.31;100.00;58022.63;5054556;28;20036;-61
2023/08/18 03:44:02;;;;;;;0.20;0.20;;;;;;;-144.31;100.00;58022.63;5061663;28;20505;-62
2023/08/18 03:47:26;;;;;;;0.20;0.20;;;;;;;-144.31;100.00;58022.63;5051494;28;20043;-62
2023/08/18 03:50:51;;;;;;;0.20;0.20;;;;;;;-144.31;100.00;58022.63;5056971;28;20029;-62
2023/08/18 03:54:15;;;;;;;0.20;0.20;;;;;;;-144.31;100.00;58022.63;5052365;28;20028;-61
2023/08/18 03:57:39;;;;;;;0.20;0.20;;;;;;;-144.31;100.00;58022.63;5050470;28;20441;-62
2023/08/18 04:01:07;;;;;;;0.20;0.20;;;;;;;-144.31;100.00;58022.63;5057103;28;20040;-62
2023/08/18 04:04:36;;;;;;;0.20;0.20;;;;;;;-144.31;100.00;58022.63;5068378;28;20385;-62
2023/08/18 04:08:00;;;;;;;0.20;0.20;;;;;;;-144.31;100.00;58022.63;5056553;28;20134;-63
2023/08/18 04:11:24;;;;;;;0.20;0.20;;;;;;;-144.31;100.00;58022.63;5061335;28;20653;-62
2023/08/18 04:14:48;;;;;;;0.20;0.20;;;;;;;-144.31;100.00;58022.63;5067813;28;20071;-63
2023/08/18 04:18:12;;;;;;;0.20;0.20;;;;;;;-144.31;100.00;58022.63;5060180;28;20077;-61
2023/08/18 04:21:36;;;;;;;0.20;0.20;;;;;;;-144.31;100.00;58022.63;5056706;28;20470;-62
2023/08/18 04:25:01;;;;;;;0.20;0.20;;;;;;;-144.31;100.00;58022.63;5052074;28;20087;-63
2023/08/18 04:28:25;;;;;;;0.20;0.20;;;;;;;-144.31;100.00;58022.63;5050755;28;20056;-61
2023/08/18 04:31:49;;;;;;;0.20;0.20;;;;;;;-144.31;100.00;58022.63;5053858;28;20037;-62
2023/08/18 04:35:16;;;;;;;0.20;0.20;;;;;;;-144.31;100.00;58022.63;5055029;28;20043;-63
2023/08/18 04:38:41;;;;;;;0.30;0.30;;;;;;;-144.31;100.00;58022.63;5061186;28;20032;-62
2023/08/18 04:42:10;;;;;;;0.20;0.20;;;;;;;-144.31;100.00;58022.63;5052126;28;20433;-62
2023/08/18 04:45:34;;;;;;;0.20;0.20;;;;;;;-144.31;100.00;58022.63;5059343;28;20064;-62
2023/08/18 04:48:59;;;;;;;0.20;0.20;;;;;;;-144.31;100.00;58022.63;5059449;28;20418;-62
2023/08/18 04:52:23;;;;;;;0.20;0.20;;;;;;;-144.31;100.00;58022.63;5054784;28;20036;-63
2023/08/18 04:55:47;;;;;;;0.20;0.20;;;;;;;-144.31;100.00;58022.63;5055767;28;20482;-62
2023/08/18 04:59:11;;;;;;;0.20;0.20;;;;;;;-144.31;100.00;58022.63;5056003;28;20044;-63
2023/08/18 05:02:35;;;;;;;0.20;0.20;;;;;;;-144.31;100.00;58022.63;5054940;28;20042;-64
2023/08/18 05:06:00;;;;;;;0.20;0.20;;;;;;;-144.31;100.00;58022.63;5056092;28;20356;-64
2023/08/18 05:09:25;;;;;;;0.20;0.20;;;;;;;-144.31;100.00;58022.63;5052802;28;20044;-63
2023/08/18 05:12:49;;;;;;;0.20;0.20;;;;;;;-144.31;100.00;58022.63;5056685;28;20029;-62
2023/08/18 05:16:13;;;;;;;0.20;0.20;;;;;;;-144.31;100.00;58022.63;5055584;28;20043;-68
2023/08/18 05:19:37;;;;;;;0.20;0.20;;;;;;;-144.31;100.00;58022.63;5058316;28;20041;-63
2023/08/18 05:23:05;;;;;;;0.20;0.20;;;;;;;-144.31;100.00;58022.63;5058821;28;20068;-62
2023/08/18 05:26:29;;;;;;;0.20;0.20;;;;;;;-144.31;100.00;58022.63;5054740;28;20044;-63
2023/08/18 05:29:53;;;;;;;0.20;0.20;;;;;;;-144.31;100.00;58022.63;5054071;28;20064;-63
2023/08/18 05:33:18;;;;;;;0.20;0.20;;;;;;;-144.31;100.00;58022.63;5054791;28;20028;-62
2023/08/18 05:36:42;;;;;;;0.20;0.20;;;;;;;-144.31;100.00;58022.63;5039292;28;20718;-62
2023/08/18 05:40:06;;;;;;;0.20;0.20;;;;;;;-144.31;100.00;58022.63;5053736;28;20025;-62
2023/08/18 05:43:30;;;;;;;0.20;0.20;;;;;;;-144.31;100.00;58022.63;5053879;28;20029;-63
2023/08/18 05:46:54;;;;;;;0.20;0.20;;;;;;;-144.31;100.00;58022.63;5053401;28;20075;-62
2023/08/18 05:50:18;;;;;;;0.20;0.20;;;;;;;-144.31;100.00;58022.63;5055484;28;20398;-62
2023/08/18 05:53:42;;;;;;;0.20;0.20;;;;;;;-144.31;100.00;58022.63;5056096;28;20394;-62
2023/08/18 05:57:06;;;;;;;0.20;0.20;;;;;;;-144.31;100.00;58022.63;5057621;28;20033;-63
2023/08/18 06:00:30;;;;;;;0.20;0.20;;;;;;;-144.31;100.00;58022.63;5058482;28;20040;-62
2023/08/18 06:03:55;;;;;;;0.20;0.20;;;;;;;-144.31;100.00;58022.63;5055926;28;20148;-62
2023/08/18 06:07:19;;;;;;;0.20;0.20;;;;;;;-144.31;100.00;58022.63;5059189;28;20040;-62
2023/08/18 06:10:43;;;;;;;0.10;0.10;;;;;;;-144.31;100.00;58022.63;5062311;28;20100;-62
2023/08/18 06:14:07;;;;;;;0.10;0.10;;;;;;;-144.31;100.00;58022.63;5061807;28;20039;-61
2023/08/18 06:17:31;;;;;;;0.10;0.10;;;;;;;-144.31;100.00;58022.63;5057599;28;20043;-62
2023/08/18 06:20:57;;;;;;;0.10;0.10;;;;;;;-144.31;100.00;58022.63;5060658;28;20419;-62
2023/08/18 06:24:21;;;;;;;0.10;0.10;;;;;;;-144.31;100.00;58022.63;5055470;28;20044;-62
2023/08/18 06:27:45;;;;;;;0.10;0.10;;;;;;;-144.31;100.00;58022.63;5055930;28;20118;-61
2023/08/18 06:31:09;;;;;;;0.10;0.10;;;;;;;-144.31;100.00;58022.63;5057531;28;20423;-62
2023/08/18 06:34:33;;;;;;;0.10;0.10;;;;;;;-144.31;100.00;58022.63;5058293;28;20151;-62
2023/08/18 06:37:57;;;;;;;0.10;0.10;;;;;;;-144.31;100.00;58022.63;5056822;28;20043;-62
2023/08/18 06:41:21;;;;;;;0.10;0.10;;;;;;;-144.31;100.00;58022.63;5060977;28;20478;-63
2023/08/18 06:44:45;;;;;;;0.10;0.10;;;;;;;-144.31;100.00;58022.63;5052897;28;20041;-63
2023/08/18 06:48:09;;;;;;;0.10;0.10;;;;;;;-144.31;100.00;58022.63;5054564;28;20412;-63
2023/08/18 06:51:33;;;;;;;0.10;0.10;;;;;;;-144.31;100.00;58022.63;5056025;28;20032;-63
2023/08/18 06:54:57;;;;;;;0.10;0.10;;;;;;;-144.31;100.00;58022.63;5056436;28;20029;-63
2023/08/18 06:58:21;;;;;;;0.10;0.10;;;;;;;-144.31;100.00;58022.63;5067450;28;20123;-62
2023/08/18 07:01:45;;;;;;;0.10;0.10;;;;;;;-144.31;100.00;58022.63;5062697;28;20040;-62
2023/08/18 07:05:09;;;;;;;0.10;0.10;;;;;;;-144.31;100.00;58022.63;5053428;28;20029;-63
2023/08/18 07:08:33;;;;;;;0.10;0.10;;;;;;;-144.31;100.00;58022.63;5054803;28;20029;-61
2023/08/18 07:11:58;;;;;;;0.10;0.10;;;;;;;-144.31;100.00;58022.63;5054081;28;20040;-60
2023/08/18 07:15:22;;;;;;;0.10;0.10;;;;;;;-144.31;100.00;58022.63;5053716;28;20037;-61
2023/08/18 07:18:46;;;;;;;0.10;0.10;;;;;;;-144.31;100.00;58022.63;5048975;28;20085;-61
2023/08/18 07:22:10;;;;;;;0.10;0.10;;;;;;;-144.31;100.00;58022.63;5049431;28;20033;-62
2023/08/18 07:25:34;;;;;;;0.10;0.10;;;;;;;-144.31;100.00;58022.63;5053448;28;20082;-62
2023/08/18 07:28:58;;;;;;;0.00;0.00;;;;;;;-144.31;100.00;58022.63;5060386;28;20216;-62
2023/08/18 07:32:22;;;;;;;0.10;0.10;;;;;;;-144.31;100.00;58022.63;5050332;28;20043;-62
2023/08/18 07:35:47;;;;;;;0.10;0.10;;;;;;;-144.31;100.00;58022.63;5053756;28;20390;-62
2023/08/18 07:39:10;;;;;;;0.10;0.10;;;;;;;-144.31;100.00;58022.63;5053588;28;20041;-62
2023/08/18 07:42:37;;;;;;;0.10;0.10;;;;;;;-144.31;100.00;58022.63;5056521;28;20043;-61
2023/08/18 07:46:01;;;;;;;0.00;0.00;;;;;;;-144.31;100.00;58022.63;5055931;28;20050;-61
2023/08/18 07:49:26;;;;;;;0.00;0.00;;;;;;;-144.31;100.00;58022.63;5058364;28;20036;-61
2023/08/18 07:52:50;;;;;;;0.10;0.10;;;;;;;-144.31;100.00;58022.63;5053701;28;20029;-63
2023/08/18 07:56:16;;;;;;;0.00;0.00;;;;;;;-144.31;100.00;58022.63;5051119;28;20037;-62
2023/08/18 07:59:41;;;;;;;0.10;0.10;;;;;;;-144.31;100.00;58022.63;5051877;28;20461;-63
2023/08/18 08:03:05;;;;;;;0.03;0.03;;;;;;;-144.31;100.00;58022.63;5051899;28;20033;-62
2023/08/18 08:06:28;;;;;;;0.00;0.00;;;;;;;-144.31;100.00;58022.63;5051961;28;20126;-63
2023/08/18 08:09:56;;;;;;;0.00;0.00;;;;;;;-144.31;100.00;58022.63;5052064;28;20067;-62
2023/08/18 08:13:20;;;;;;;0.00;0.00;;;;;;;-144.31;100.00;58022.63;5050289;28;20036;-62
2023/08/18 08:16:44;;;;;;;0.00;0.00;;;;;;;-144.31;100.00;58022.63;5052495;28;20037;-63
2023/08/18 08:20:15;;;;;;;0.00;0.00;;;;;;;-144.31;100.00;58022.63;5054107;28;20036;-63
2023/08/18 08:23:39;;;;;;;0.00;0.00;;;;;;;-144.31;100.00;58022.63;5053767;28;20450;-62
2023/08/18 08:27:04;;;;;;;0.00;0.00;;;;;;;-144.31;100.00;58022.63;5054226;28;20040;-63
2023/08/18 08:30:31;;;;;;;0.00;0.00;;;;;;;-144.31;100.00;58022.63;5054209;28;20036;-62
2023/08/18 08:33:55;;;;;;;0.00;0.00;;;;;;;-144.31;100.00;58022.63;5053181;28;20025;-63
2023/08/18 08:37:19;;;;;;;0.00;0.00;;;;;;;-144.31;100.00;58022.63;5054455;28;20366;-62
2023/08/18 08:40:43;;;;;;;0.00;0.00;;;;;;;-144.31;100.00;58022.63;5056276;28;20044;-62
2023/08/18 08:44:07;;;;;;;0.00;0.00;;;;;;;-144.31;100.00;58022.63;5069178;28;20037;-62
2023/08/18 08:47:31;;;;;;;0.00;0.00;;;;;;;-144.31;100.00;58022.63;5049438;28;20033;-61
2023/08/18 08:51:03;;;;;;;0.00;0.00;;;;;;;-144.31;100.00;58022.63;5051089;28;20398;-62
2023/08/18 08:54:30;;;;;;;0.00;0.00;;;;;;;-144.31;100.00;58022.63;5053796;28;20219;-61
2023/08/18 08:57:55;;;;;;;0.00;0.00;;;;;;;-144.31;100.00;58022.63;5052743;28;20037;-61
2023/08/18 09:01:20;;;;;;;0.00;0.00;;;;;;;-144.31;100.00;58022.63;5056586;28;20518;-61
2023/08/18 09:04:45;;;;;;;0.00;0.00;;;;;;;-144.31;100.00;58022.63;5057115;28;20052;-62
2023/08/18 09:08:09;;;;;;;0.00;0.00;;;;;;;-144.31;100.00;58022.63;5053352;28;20025;-61
2023/08/18 09:11:45;;;;;;;0.00;0.00;;;;;;;-144.31;100.00;58022.63;5053434;28;20041;-62
2023/08/18 09:15:10;;;;;;;0.00;0.00;;;;;;;-144.31;100.00;58022.63;5052320;28;20162;-61
2023/08/18 09:18:34;;;;;;;0.00;0.00;;;;;;;-144.31;100.00;58022.63;5054168;28;20041;-61
2023/08/18 09:21:59;;;;;;;0.00;0.00;;;;;;;-144.31;100.00;58022.63;5042931;28;20041;-62
2023/08/18 09:25:23;;;;;;;0.00;0.00;;;;;;;-144.31;100.00;58022.63;5054831;28;20059;-61
2023/08/18 09:28:48;;;;;;;0.00;0.00;;;;;;;-144.31;100.00;58022.63;5052133;28;20044;-61
2023/08/18 09:32:12;;;;;;;0.00;0.00;;;;;;;-144.31;100.00;58022.63;5050724;28;20051;-61
2023/08/18 09:35:42;;;;;;;0.00;0.00;;;;;;;-144.31;100.00;58022.63;5061139;28;20179;-61
2023/08/18 09:39:12;;;;;;;0.00;0.00;;;;;;;-144.31;100.00;58022.63;5051732;28;20553;-62
2023/08/18 09:42:36;;;;;;;0.00;0.00;;;;;;;-144.31;100.00;58022.63;5050364;28;20037;-62
2023/08/18 09:46:04;;;;;;;0.00;0.00;;;;;;;-144.31;100.00;58022.63;5066117;28;20132;-62
2023/08/18 09:49:33;;;;;;;0.00;0.00;;;;;;;-144.31;100.00;58022.63;5061063;28;20106;-62
2023/08/18 09:53:03;;;;;;;0.00;0.00;;;;;;;-144.31;100.00;58022.63;5054213;28;20033;-62
2023/08/18 09:56:37;;;;;;;0.00;0.00;;;;;;;-144.31;100.00;58022.63;5060972;28;20434;-63
2023/08/18 10:00:01;;;;;;;0.00;0.00;;;;;;;-144.31;100.00;58022.63;5073514;28;20036;-61
2023/08/18 10:03:36;;;;;;;0.00;0.00;;;;;;;-144.31;100.00;58022.63;5054168;28;20497;-62
2023/08/18 10:07:02;;;;;;;0.00;0.00;;;;;;;-144.31;100.00;58022.63;5054157;28;20403;-61
2023/08/18 10:10:27;;;;;;;0.00;0.00;;;;;;;-144.31;100.00;58022.63;5059585;28;20033;-61
2023/08/18 10:13:51;;;;;;;0.00;0.00;;;;;;;-144.31;100.00;58022.63;5059642;28;20085;-61
2023/08/18 10:17:21;;;;;;;0.00;0.00;;;;;;;-144.31;100.00;58022.63;5059682;28;20487;-61
2023/08/18 10:20:49;;;;;;;0.00;0.00;;;;;;;-144.31;100.00;58022.63;5052855;28;20120;-61
2023/08/18 10:24:16;;;;;;;0.00;0.00;;;;;;;-144.31;100.00;58022.63;5059042;28;20028;-62
2023/08/18 10:27:41;;;;;;;0.00;0.00;;;;;;;-144.31;100.00;58022.63;5054927;28;20291;-62
2023/08/18 10:31:07;;;;;;;0.00;0.00;;;;;;;-144.31;100.00;58022.63;5061802;28;20059;-62
2023/08/18 10:34:37;;;;;;;0.00;0.00;;;;;;;-144.31;100.00;58022.63;5056592;28;20075;-61
2023/08/18 10:38:07;;;;;;;0.00;0.00;;;;;;;-144.31;100.00;58022.63;5056143;28;20105;-61
2023/08/18 10:41:32;;;;;;;0.00;0.00;;;;;;;-144.31;100.00;58022.63;5054930;28;20025;-61
2023/08/18 10:44:57;;;;;;;0.00;0.00;;;;;;;-144.31;100.00;58022.63;5055028;28;20631;-62
2023/08/18 10:48:22;;;;;;;;;;;;;;;-144.31;100.00;58022.63;5053651;28;20048;-62
2023/08/18 10:51:48;;;;;;;;;;;;;;;-144.31;100.00;58022.63;5053884;28;19912;-62
2023/08/18 10:55:12;;;;;;;0.00;0.00;;;;;;;-144.31;100.00;58022.63;5056493;28;20011;-62
2023/08/18 10:58:36;;;;;;;0.00;0.00;;;;;;;-144.31;100.00;58022.63;5054563;28;20072;-64
2023/08/18 11:02:00;;;;;;;0.00;0.00;;;;;;;-144.31;100.00;58022.63;5053290;28;20038;-63
2023/08/18 11:05:25;;;;;;;0.00;0.00;;;;;;;-144.31;100.00;58022.63;5053764;28;20542;-61
2023/08/18 11:08:49;;;;;;;0.00;0.00;;;;;;;-144.31;100.00;58022.63;5061488;28;20647;-61
2023/08/18 11:12:15;;;;;;;0.00;0.00;;;;;;;-144.31;100.00;58022.63;5056974;28;20508;-62
2023/08/18 11:15:38;;;;;;;0.00;0.00;;;;;;;-144.31;100.00;58022.63;5054677;28;20033;-63
2023/08/18 11:19:04;;;;;;;0.00;0.00;;;;;;;-144.31;100.00;58022.63;5055911;28;20053;-62
2023/08/18 11:22:28;;;;;;;0.00;0.00;;;;;;;-144.31;100.00;58022.63;5053490;28;20127;-62
2023/08/18 11:25:54;;;;;;;0.00;0.00;;;;;;;-144.31;100.00;58022.63;5053054;28;20567;-62
2023/08/18 11:29:18;;;;;;;0.00;0.00;;;;;;;-144.31;100.00;58022.63;5055031;28;20467;-66
2023/08/18 11:32:48;;;;;;;0.00;0.00;;;;;;;-144.31;100.00;58022.63;5064257;28;20036;-66
2023/08/18 11:36:12;;;;;;;0.00;0.00;;;;;;;-144.31;100.00;58022.63;5060775;28;20040;-62
2023/08/18 11:39:37;;;;;;;0.00;0.00;;;;;;;-144.31;100.00;58022.63;5040556;28;20141;-64
2023/08/18 11:43:01;;;;;;;0.00;0.00;;;;;;;-144.31;100.00;58022.63;5053678;28;20033;-63
2023/08/18 11:46:25;;;;;;;0.00;0.00;;;;;;;-144.31;100.00;58022.63;5060144;28;20044;-62
2023/08/18 11:49:50;;;;;;;0.00;0.00;;;;;;;-144.31;100.00;58022.63;5055632;28;20079;-62
2023/08/18 11:53:21;;;;;;;0.00;0.00;;;;;;;-144.31;100.00;58022.63;5049618;28;20102;-62
2023/08/18 11:56:46;;;;;;;0.00;0.00;;;;;;;-144.31;100.00;58022.63;5058986;28;20036;-64
2023/08/18 12:00:17;;;;;;;0.00;0.00;;;;;;;-144.31;100.00;58022.63;5053625;28;20052;-64
2023/08/18 12:03:53;;;;;;;0.00;0.00;;;;;;;-144.31;100.00;58022.63;5054976;28;20413;-61
2023/08/18 12:07:20;;;;;;;0.00;0.00;;;;;;;-144.31;100.00;58022.63;5054550;28;20098;-60
2023/08/18 12:10:47;;;;;;;0.00;0.00;;;;;;;-144.31;100.00;58022.63;5054222;28;20123;-61
2023/08/18 12:14:12;;;;;;;0.00;0.00;;;;;;;-144.31;100.00;58022.63;5051157;28;20093;-60
2023/08/18 12:17:36;;;;;;;0.00;0.00;;;;;;;-144.31;100.00;58022.63;5055743;28;20052;-60
2023/08/18 12:21:00;;;;;;;0.00;0.00;;;;;;;-144.31;100.00;58022.63;5055616;28;20025;-61
2023/08/18 12:24:24;;;;;;;0.00;0.00;;;;;;;-144.31;100.00;58022.63;5054593;28;20033;-60
2023/08/18 12:27:49;;;;;;;0.00;0.00;;;;;;;-144.31;100.00;58022.63;5055561;28;20033;-61
2023/08/18 12:31:14;;;;;;;0.00;0.00;;;;;;;-144.31;100.00;58022.63;5057667;28;20055;-61
2023/08/18 12:34:38;;;;;;;0.00;0.00;;;;;;;-144.31;100.00;58022.63;5059848;28;20050;-61
2023/08/18 12:38:02;;;;;;;0.00;0.00;;;;;;;-144.31;100.00;58022.63;5056382;28;20032;-62
2023/08/18 12:41:27;;;;;;;0.00;0.00;;;;;;;-144.31;100.00;58022.63;5055829;28;20344;-62
2023/08/18 12:44:52;;;;;;;0.00;0.00;;;;;;;-144.31;100.00;58022.63;5052803;28;20037;-63
2023/08/18 12:48:16;;;;;;;0.00;0.00;;;;;;;-144.31;100.00;58022.63;5043712;28;20353;-63
2023/08/18 12:51:41;;;;;;;0.00;0.00;;;;;;;-144.31;100.00;58022.63;5058689;28;20037;-62
2023/08/18 12:55:05;;;;;;;0.00;0.00;;;;;;;-144.31;100.00;58022.63;5051780;28;20462;-61
2023/08/18 12:58:29;;;;;;;0.00;0.00;;;;;;;-144.31;100.00;58022.63;5057292;28;20037;-62
2023/08/18 13:01:53;;;;;;;0.00;0.00;;;;;;;-144.31;100.00;58022.63;5056729;28;20113;-61
2023/08/18 13:05:17;;;;;;;0.00;0.00;;;;;;;-144.31;100.00;58022.63;5054848;28;20060;-62
2023/08/18 13:08:41;;;;;;;0.00;0.00;;;;;;;-144.31;100.00;58022.63;5049414;28;20053;-61
2023/08/18 13:12:08;;;;;;;0.00;0.00;;;;;;;-144.31;100.00;58022.63;5055500;28;20037;-61
2023/08/18 13:15:32;;;;;;;0.00;0.00;;;;;;;-144.31;100.00;58022.63;5053960;28;20036;-61
2023/08/18 13:18:56;;;;;;;0.00;0.00;;;;;;;-144.31;100.00;58022.63;5056801;28;20060;-60
2023/08/18 13:22:20;;;;;;;0.00;0.00;;;;;;;-144.31;100.00;58022.63;5048490;28;20037;-62
2023/08/18 13:25:43;;;;;;;0.00;0.00;;;;;;;-144.31;100.00;58022.63;5051574;28;20038;-61
2023/08/18 13:29:08;;;;;;;0.00;0.00;;;;;;;-144.31;100.00;58022.63;5056591;28;20028;-61
2023/08/18 13:32:32;;;;;;;0.00;0.00;;;;;;;-144.31;100.00;58022.63;5056406;28;20041;-62
2023/08/18 13:35:56;;;;;;;0.00;0.00;;;;;;;-144.31;100.00;58022.63;5055065;28;20471;-62
2023/08/18 13:39:20;;;;;;;0.00;0.00;;;;;;;-144.31;100.00;58022.63;5046252;28;20136;-61
2023/08/18 13:42:45;;;;;;;0.00;0.00;;;;;;;-144.31;100.00;58022.63;5056948;28;20528;-61
2023/08/18 13:46:09;;;;;;;0.00;0.00;;;;;;;-144.31;100.00;58022.63;5056599;28;20404;-61
2023/08/18 13:49:33;;;;;;;0.00;0.00;;;;;;;-144.31;100.00;58022.63;5051511;28;20374;-60
2023/08/18 13:52:57;;;;;;;0.00;0.00;;;;;;;-144.31;100.00;58022.63;5055055;28;20033;-61
2023/08/18 13:56:21;;;;;;;0.00;0.00;;;;;;;-144.31;100.00;58022.63;5062427;28;20508;-62
2023/08/18 13:59:45;;;;;;;0.00;0.00;;;;;;;-144.31;100.00;58022.63;5055668;28;20140;-61
2023/08/18 14:03:09;;;;;;;0.00;0.00;;;;;;;-144.31;100.00;58022.63;5059142;28;20040;-61
2023/08/18 14:06:33;;;;;;;0.00;0.00;;;;;;;-144.31;100.00;58022.63;5053807;28;20101;-61
2023/08/18 14:09:57;;;;;;;0.00;0.00;;;;;;;-144.31;100.00;58022.63;5055871;28;20175;-63
2023/08/18 14:13:21;;;;;;;0.00;0.00;;;;;;;-144.31;100.00;58022.63;5054140;28;20029;-66
2023/08/18 14:16:45;;;;;;;0.00;0.00;;;;;;;-144.31;100.00;58022.63;5053450;28;20394;-61
2023/08/18 14:20:14;;;;;;;0.00;0.00;;;;;;;-144.31;100.00;58022.63;5055200;28;20035;-63
2023/08/18 14:23:39;;;;;;;0.00;0.00;;;;;;;-144.31;100.00;58022.63;5056195;28;20036;-61
2023/08/18 14:27:03;;;;;;;0.00;0.00;;;;;;;-144.31;100.00;58022.63;5052852;28;20048;-61
2023/08/18 14:30:27;;;;;;;0.00;0.00;;;;;;;-144.31;100.00;58022.63;5051852;28;20033;-61
2023/08/18 14:33:51;;;;;;;0.00;0.00;;;;;;;-144.31;100.00;58022.63;5055991;28;20089;-61
2023/08/18 14:37:15;;;;;;;0.00;0.00;;;;;;;-144.31;100.00;58022.63;5056457;28;20041;-61
2023/08/18 14:40:39;;;;;;;0.00;0.00;;;;;;;-144.31;100.00;58022.63;5043412;28;20054;-62
2023/08/18 14:44:03;;;;;;;0.00;0.00;;;;;;;-144.31;100.00;58022.63;5060764;28;20056;-61
2023/08/18 14:47:27;;;;;;;0.00;0.00;;;;;;;-144.31;100.00;58022.63;5048294;28;20059;-62
2023/08/18 14:50:51;;;;;;;0.00;0.00;;;;;;;-144.31;100.00;58022.63;5040493;28;20088;-64
2023/08/18 14:54:15;;;;;;;0.00;0.00;;;;;;;-144.31;100.00;58022.63;5041278;28;20466;-63
2023/08/18 14:57:39;;;;;;;0.00;0.00;;;;;;;-144.31;100.00;58022.63;5043579;28;20759;-63
2023/08/18 15:01:03;;;;;;;0.00;0.00;;;;;;;-144.31;100.00;58022.63;5051723;28;20041;-62
2023/08/18 15:04:27;;;;;;;0.00;0.00;;;;;;;-144.31;100.00;58022.63;5043801;28;20044;-61
2023/08/18 15:07:51;;;;;;;0.00;0.00;;;;;;;-144.31;100.00;58022.63;5049243;28;20037;-62
2023/08/18 15:11:15;;;;;;;0.00;0.00;;;;;;;-144.31;100.00;58022.63;5061185;28;20112;-62
2023/08/18 15:14:40;;;;;;;0.00;0.00;;;;;;;-144.31;100.00;58022.63;5041007;28;20043;-61
2023/08/18 15:18:04;;;;;;;0.00;0.00;;;;;;;-144.31;100.00;58022.63;5052953;28;20279;-62
2023/08/18 15:21:28;;;;;;;0.00;0.00;;;;;;;-144.31;100.00;58022.63;5051249;28;21079;-62
2023/08/18 15:24:54;;;;;;;0.00;0.00;;;;;;;-144.31;100.00;58022.63;5049454;28;20040;-62
2023/08/18 15:28:18;;;;;;;0.00;0.00;;;;;;;-144.31;100.00;58022.63;5046907;28;20493;-62
2023/08/18 15:31:42;;;;;;;0.00;0.00;;;;;;;-144.31;100.00;58022.63;5044398;28;20039;-61